sensor_id;sensor_type;location;lat;lon;timestamp;pressure;altitude;pressure_sealevel;temperature;humidity
17309;BME280;8772;42.804;23.426;2023-06-14T00:00:16;72866.13;;;-140.58;100.00
17309;BME280;8772;42.804;23.426;2023-06-14T00:02:43;72892.78;;;-140.58;100.00
17309;BME280;8772;42.804;23.426;2023-06-14T00:05:10;72884.59;;;-140.58;100.00
17309;BME280;8772;42.804;23.426;2023-06-14T00:07:40;72872.28;;;-140.58;100.00
17309;BME280;8772;42.804;23.426;2023-06-14T00:10:10;72876.38;;;-140.58;100.00
17309;BME280;8772;42.804;23.426;2023-06-14T00:12:39;72882.53;;;-140.58;100.00
17309;BME280;8772;42.804;23.426;2023-06-14T00:15:07;72866.13;;;-140.58;100.00
17309;BME280;8772;42.804;23.426;2023-06-14T00:17:35;72857.91;;;-140.58;100.00
17309;BME280;8772;42.804;23.426;2023-06-14T00:20:05;72853.81;;;-140.58;100.00
17309;BME280;8772;42.804;23.426;2023-06-14T00:22:33;72862.03;;;-140.58;100.00
17309;BME280;8772;42.804;23.426;2023-06-14T00:25:02;72866.13;;;-140.58;100.00
17309;BME280;8772;42.804;23.426;2023-06-14T00:27:30;72857.91;;;-140.58;100.00
17309;BME280;8772;42.804;23.426;2023-06-14T00:29:57;72845.63;;;-140.58;100.00
17309;BME280;8772;42.804;23.426;2023-06-14T00:32:24;72841.50;;;-140.58;100.00
17309;BME280;8772;42.804;23.426;2023-06-14T00:34:51;72849.72;;;-140.58;100.00
17309;BME280;8772;42.804;23.426;2023-06-14T00:37:18;72859.97;;;-140.58;100.00
17309;BME280;8772;42.804;23.426;2023-06-14T00:39:45;72876.38;;;-140.58;100.00
17309;BME280;8772;42.804;23.426;2023-06-14T00:42:23;72884.59;;;-140.58;100.00
17309;BME280;8772;42.804;23.426;2023-06-14T00:44:51;72886.63;;;-140.58;100.00
17309;BME280;8772;42.804;23.426;2023-06-14T00:47:18;72882.53;;;-140.58;100.00
17309;BME280;8772;42.804;23.426;2023-06-14T00:49:46;72890.72;;;-140.58;100.00
17309;BME280;8772;42.804;23.426;2023-06-14T00:52:13;72896.88;;;-140.58;100.00
17309;BME280;8772;42.804;23.426;2023-06-14T00:54:41;72907.13;;;-140.58;100.00
17309;BME280;8772;42.804;23.426;2023-06-14T00:57:08;72894.84;;;-140.58;100.00
17309;BME280;8772;42.804;23.426;2023-06-14T00:59:40;72907.13;;;-140.58;100.00
17309;BME280;8772;42.804;23.426;2023-06-14T01:02:10;72894.84;;;-140.58;100.00
17309;BME280;8772;42.804;23.426;2023-06-14T01:08:07;72921.50;;;-140.58;100.00
17309;BME280;8772;42.804;23.426;2023-06-14T01:10:41;72923.56;;;-140.58;100.00
17309;BME280;8772;42.804;23.426;2023-06-14T01:13:19;72931.75;;;-140.58;100.00
17309;BME280;8772;42.804;23.426;2023-06-14T01:15:47;72917.41;;;-140.58;100.00
17309;BME280;8772;42.804;23.426;2023-06-14T01:18:16;72896.88;;;-140.58;100.00
17309;BME280;8772;42.804;23.426;2023-06-14T01:20:44;72888.69;;;-140.58;100.00
17309;BME280;8772;42.804;23.426;2023-06-14T01:23:14;72880.47;;;-140.58;100.00
17309;BME280;8772;42.804;23.426;2023-06-14T01:25:41;72903.03;;;-140.58;100.00
17309;BME280;8772;42.804;23.426;2023-06-14T01:28:10;72898.94;;;-140.58;100.00
17309;BME280;8772;42.804;23.426;2023-06-14T01:30:39;72901.00;;;-140.58;100.00
17309;BME280;8772;42.804;23.426;2023-06-14T01:33:11;72901.00;;;-140.58;100.00
17309;BME280;8772;42.804;23.426;2023-06-14T01:35:39;72886.63;;;-140.58;100.00
17309;BME280;8772;42.804;23.426;2023-06-14T01:38:06;72901.00;;;-140.58;100.00
17309;BME280;8772;42.804;23.426;2023-06-14T01:40:36;72888.69;;;-140.58;100.00
17309;BME280;8772;42.804;23.426;2023-06-14T01:43:05;72888.69;;;-140.58;100.00
17309;BME280;8772;42.804;23.426;2023-06-14T01:45:33;72888.69;;;-140.58;100.00
17309;BME280;8772;42.804;23.426;2023-06-14T01:48:01;72911.25;;;-140.58;100.00
17309;BME280;8772;42.804;23.426;2023-06-14T01:50:28;72907.13;;;-140.58;100.00
17309;BME280;8772;42.804;23.426;2023-06-14T01:52:56;72888.69;;;-140.58;100.00
17309;BME280;8772;42.804;23.426;2023-06-14T01:55:23;72888.69;;;-140.58;100.00
17309;BME280;8772;42.804;23.426;2023-06-14T01:57:52;72880.47;;;-140.58;100.00
17309;BME280;8772;42.804;23.426;2023-06-14T02:00:20;72884.59;;;-140.58;100.00
17309;BME280;8772;42.804;23.426;2023-06-14T02:02:47;72886.63;;;-140.58;100.00
17309;BME280;8772;42.804;23.426;2023-06-14T02:05:14;72874.31;;;-140.58;100.00
17309;BME280;8772;42.804;23.426;2023-06-14T02:07:45;72870.22;;;-140.58;100.00
17309;BME280;8772;42.804;23.426;2023-06-14T02:10:12;72880.47;;;-140.58;100.00
17309;BME280;8772;42.804;23.426;2023-06-14T02:12:39;72886.63;;;-140.58;100.00
17309;BME280;8772;42.804;23.426;2023-06-14T02:15:09;72878.44;;;-140.58;100.00
17309;BME280;8772;42.804;23.426;2023-06-14T02:17:42;72882.53;;;-140.58;100.00
17309;BME280;8772;42.804;23.426;2023-06-14T02:20:10;72866.13;;;-140.58;100.00
17309;BME280;8772;42.804;23.426;2023-06-14T02:22:37;72872.28;;;-140.58;100.00
17309;BME280;8772;42.804;23.426;2023-06-14T02:25:04;72866.13;;;-140.58;100.00
17309;BME280;8772;42.804;23.426;2023-06-14T02:27:32;72857.91;;;-140.58;100.00
17309;BME280;8772;42.804;23.426;2023-06-14T02:29:59;72866.13;;;-140.58;100.00
17309;BME280;8772;42.804;23.426;2023-06-14T02:32:27;72874.31;;;-140.58;100.00
17309;BME280;8772;42.804;23.426;2023-06-14T02:34:54;72864.06;;;-140.58;100.00
17309;BME280;8772;42.804;23.426;2023-06-14T02:37:21;72874.31;;;-140.58;100.00
17309;BME280;8772;42.804;23.426;2023-06-14T02:39:48;72862.03;;;-140.58;100.00
17309;BME280;8772;42.804;23.426;2023-06-14T02:42:15;72855.88;;;-140.58;100.00
17309;BME280;8772;42.804;23.426;2023-06-14T02:44:42;72857.91;;;-140.58;100.00
17309;BME280;8772;42.804;23.426;2023-06-14T02:47:10;72866.13;;;-140.58;100.00
17309;BME280;8772;42.804;23.426;2023-06-14T02:49:38;72866.13;;;-140.58;100.00
17309;BME280;8772;42.804;23.426;2023-06-14T02:52:06;72853.81;;;-140.58;100.00
17309;BME280;8772;42.804;23.426;2023-06-14T02:54:34;72862.03;;;-140.58;100.00
17309;BME280;8772;42.804;23.426;2023-06-14T02:57:01;72853.81;;;-140.58;100.00
17309;BME280;8772;42.804;23.426;2023-06-14T02:59:28;72845.63;;;-140.58;100.00
17309;BME280;8772;42.804;23.426;2023-06-14T03:01:55;72845.63;;;-140.58;100.00
17309;BME280;8772;42.804;23.426;2023-06-14T03:04:22;72847.66;;;-140.58;100.00
17309;BME280;8772;42.804;23.426;2023-06-14T03:06:52;72837.41;;;-140.58;100.00
17309;BME280;8772;42.804;23.426;2023-06-14T03:09:19;72847.66;;;-140.58;100.00
17309;BME280;8772;42.804;23.426;2023-06-14T03:11:46;72849.72;;;-140.58;100.00
17309;BME280;8772;42.804;23.426;2023-06-14T03:14:13;72849.72;;;-140.58;100.00
17309;BME280;8772;42.804;23.426;2023-06-14T03:16:40;72864.06;;;-140.58;100.00
17309;BME280;8772;42.804;23.426;2023-06-14T03:19:08;72845.63;;;-140.58;100.00
17309;BME280;8772;42.804;23.426;2023-06-14T03:21:35;72845.63;;;-140.58;100.00
17309;BME280;8772;42.804;23.426;2023-06-14T03:24:03;72835.34;;;-140.58;100.00
17309;BME280;8772;42.804;23.426;2023-06-14T03:26:30;72855.88;;;-140.58;100.00
17309;BME280;8772;42.804;23.426;2023-06-14T03:28:59;72851.75;;;-140.58;100.00
17309;BME280;8772;42.804;23.426;2023-06-14T03:31:28;72841.50;;;-140.58;100.00
17309;BME280;8772;42.804;23.426;2023-06-14T03:33:58;72818.94;;;-140.58;100.00
17309;BME280;8772;42.804;23.426;2023-06-14T03:36:25;72825.09;;;-140.58;100.00
17309;BME280;8772;42.804;23.426;2023-06-14T03:38:51;72853.81;;;-140.58;100.00
17309;BME280;8772;42.804;23.426;2023-06-14T03:41:20;72857.91;;;-140.58;100.00
17309;BME280;8772;42.804;23.426;2023-06-14T03:43:46;72837.41;;;-140.58;100.00
17309;BME280;8772;42.804;23.426;2023-06-14T03:46:13;72829.22;;;-140.58;100.00
17309;BME280;8772;42.804;23.426;2023-06-14T03:48:40;72812.81;;;-140.58;100.00
17309;BME280;8772;42.804;23.426;2023-06-14T03:51:07;72800.50;;;-140.58;100.00
17309;BME280;8772;42.804;23.426;2023-06-14T03:53:35;72792.28;;;-140.58;100.00
17309;BME280;8772;42.804;23.426;2023-06-14T03:56:02;72784.09;;;-140.58;100.00
17309;BME280;8772;42.804;23.426;2023-06-14T03:58:30;72800.50;;;-140.58;100.00
17309;BME280;8772;42.804;23.426;2023-06-14T04:00:57;72780.00;;;-140.58;100.00
17309;BME280;8772;42.804;23.426;2023-06-14T04:03:24;72784.09;;;-140.58;100.00
17309;BME280;8772;42.804;23.426;2023-06-14T04:05:54;72800.50;;;-140.58;100.00
17309;BME280;8772;42.804;23.426;2023-06-14T04:08:22;72775.88;;;-140.58;100.00
17309;BME280;8772;42.804;23.426;2023-06-14T04:10:50;72769.72;;;-140.58;100.00
17309;BME280;8772;42.804;23.426;2023-06-14T04:13:17;72763.59;;;-140.58;100.00
17309;BME280;8772;42.804;23.426;2023-06-14T04:15:45;72757.44;;;-140.58;100.00
17309;BME280;8772;42.804;23.426;2023-06-14T04:18:13;72745.13;;;-140.58;100.00
17309;BME280;8772;42.804;23.426;2023-06-14T04:20:40;72736.91;;;-140.58;100.00
17309;BME280;8772;42.804;23.426;2023-06-14T04:23:13;72726.66;;;-140.58;100.00
17309;BME280;8772;42.804;23.426;2023-06-14T04:25:40;72738.97;;;-140.58;100.00
17309;BME280;8772;42.804;23.426;2023-06-14T04:28:11;72726.66;;;-140.58;100.00
17309;BME280;8772;42.804;23.426;2023-06-14T04:30:38;72724.63;;;-140.58;100.00
17309;BME280;8772;42.804;23.426;2023-06-14T04:33:07;72718.47;;;-140.58;100.00
17309;BME280;8772;42.804;23.426;2023-06-14T04:35:36;72714.34;;;-140.58;100.00
17309;BME280;8772;42.804;23.426;2023-06-14T04:38:03;72712.31;;;-140.58;100.00
17309;BME280;8772;42.804;23.426;2023-06-14T04:40:34;72714.34;;;-140.58;100.00
17309;BME280;8772;42.804;23.426;2023-06-14T04:43:08;72710.25;;;-140.58;100.00
17309;BME280;8772;42.804;23.426;2023-06-14T04:45:38;72726.66;;;-140.58;100.00
17309;BME280;8772;42.804;23.426;2023-06-14T04:48:06;72718.47;;;-140.58;100.00
17309;BME280;8772;42.804;23.426;2023-06-14T04:50:33;72704.09;;;-140.58;100.00
17309;BME280;8772;42.804;23.426;2023-06-14T04:53:00;72700.00;;;-140.58;100.00
17309;BME280;8772;42.804;23.426;2023-06-14T04:55:28;72714.34;;;-140.58;100.00
17309;BME280;8772;42.804;23.426;2023-06-14T04:57:55;72720.50;;;-140.58;100.00
17309;BME280;8772;42.804;23.426;2023-06-14T05:00:22;72730.78;;;-140.58;100.00
17309;BME280;8772;42.804;23.426;2023-06-14T05:02:49;72745.13;;;-140.58;100.00
17309;BME280;8772;42.804;23.426;2023-06-14T05:05:20;72730.78;;;-140.58;100.00
17309;BME280;8772;42.804;23.426;2023-06-14T05:07:46;72718.47;;;-140.58;100.00
17309;BME280;8772;42.804;23.426;2023-06-14T05:10:13;72697.97;;;-140.58;100.00
17309;BME280;8772;42.804;23.426;2023-06-14T05:12:40;72689.75;;;-140.58;100.00
17309;BME280;8772;42.804;23.426;2023-06-14T05:15:09;72704.09;;;-140.58;100.00
17309;BME280;8772;42.804;23.426;2023-06-14T05:17:36;72706.16;;;-140.58;100.00
17309;BME280;8772;42.804;23.426;2023-06-14T05:20:04;72710.25;;;-140.58;100.00
17309;BME280;8772;42.804;23.426;2023-06-14T05:22:33;72695.91;;;-140.58;100.00
17309;BME280;8772;42.804;23.426;2023-06-14T05:25:00;72685.66;;;-140.58;100.00
17309;BME280;8772;42.804;23.426;2023-06-14T05:27:27;72675.41;;;-140.58;100.00
17309;BME280;8772;42.804;23.426;2023-06-14T05:29:53;72669.25;;;-140.58;100.00
17309;BME280;8772;42.804;23.426;2023-06-14T05:32:21;72665.16;;;-140.58;100.00
17309;BME280;8772;42.804;23.426;2023-06-14T05:34:48;72654.88;;;-140.58;100.00
17309;BME280;8772;42.804;23.426;2023-06-14T05:37:15;72681.53;;;-140.58;100.00
17309;BME280;8772;42.804;23.426;2023-06-14T05:39:44;72671.28;;;-140.58;100.00
17309;BME280;8772;42.804;23.426;2023-06-14T05:42:11;72659.00;;;-140.58;100.00
17309;BME280;8772;42.804;23.426;2023-06-14T05:44:38;72646.69;;;-140.58;100.00
17309;BME280;8772;42.804;23.426;2023-06-14T05:47:05;72638.47;;;-140.58;100.00
17309;BME280;8772;42.804;23.426;2023-06-14T05:49:31;72634.38;;;-140.58;100.00
17309;BME280;8772;42.804;23.426;2023-06-14T05:51:58;72626.19;;;-140.58;100.00
17309;BME280;8772;42.804;23.426;2023-06-14T05:54:25;72624.13;;;-140.58;100.00
17309;BME280;8772;42.804;23.426;2023-06-14T05:56:53;72624.13;;;-140.58;100.00
17309;BME280;8772;42.804;23.426;2023-06-14T05:59:20;72613.88;;;-140.58;100.00
17309;BME280;8772;42.804;23.426;2023-06-14T06:01:47;72609.78;;;-140.58;100.00
17309;BME280;8772;42.804;23.426;2023-06-14T06:04:14;72603.63;;;-140.58;100.00
17309;BME280;8772;42.804;23.426;2023-06-14T06:06:41;72595.41;;;-140.58;100.00
17309;BME280;8772;42.804;23.426;2023-06-14T06:09:07;72599.53;;;-140.58;100.00
17309;BME280;8772;42.804;23.426;2023-06-14T06:11:34;72601.56;;;-140.58;100.00
17309;BME280;8772;42.804;23.426;2023-06-14T06:14:02;72583.13;;;-140.58;100.00
17309;BME280;8772;42.804;23.426;2023-06-14T06:16:29;72566.72;;;-140.58;100.00
17309;BME280;8772;42.804;23.426;2023-06-14T06:18:56;72564.66;;;-140.58;100.00
17309;BME280;8772;42.804;23.426;2023-06-14T06:21:23;72548.25;;;-140.58;100.00
17309;BME280;8772;42.804;23.426;2023-06-14T06:23:50;72538.00;;;-140.58;100.00
17309;BME280;8772;42.804;23.426;2023-06-14T06:26:16;72525.69;;;-140.58;100.00
17309;BME280;8772;42.804;23.426;2023-06-14T06:28:43;72519.53;;;-140.58;100.00
17309;BME280;8772;42.804;23.426;2023-06-14T06:31:11;72509.28;;;-140.58;100.00
17309;BME280;8772;42.804;23.426;2023-06-14T06:33:38;72507.25;;;-140.58;100.00
17309;BME280;8772;42.804;23.426;2023-06-14T06:36:06;72509.28;;;-140.58;100.00
17309;BME280;8772;42.804;23.426;2023-06-14T06:38:33;72505.19;;;-140.58;100.00
17309;BME280;8772;42.804;23.426;2023-06-14T06:41:00;72494.94;;;-140.58;100.00
17309;BME280;8772;42.804;23.426;2023-06-14T06:43:27;72496.97;;;-140.58;100.00
17309;BME280;8772;42.804;23.426;2023-06-14T06:45:54;72496.97;;;-140.58;99.93
17309;BME280;8772;42.804;23.426;2023-06-14T06:48:22;72484.69;;;-140.58;98.70
17309;BME280;8772;42.804;23.426;2023-06-14T06:50:49;72482.63;;;-140.58;97.71
17309;BME280;8772;42.804;23.426;2023-06-14T06:53:16;72486.72;;;-140.58;97.25
17309;BME280;8772;42.804;23.426;2023-06-14T06:55:44;72496.97;;;-140.58;96.83
17309;BME280;8772;42.804;23.426;2023-06-14T06:58:12;72488.78;;;-140.58;97.42
17309;BME280;8772;42.804;23.426;2023-06-14T07:00:39;72496.97;;;-140.58;97.42
17309;BME280;8772;42.804;23.426;2023-06-14T07:03:06;72496.97;;;-140.58;96.71
17309;BME280;8772;42.804;23.426;2023-06-14T07:05:34;72482.63;;;-140.58;96.74
17309;BME280;8772;42.804;23.426;2023-06-14T07:08:01;72482.63;;;-140.58;96.73
17309;BME280;8772;42.804;23.426;2023-06-14T07:10:28;72501.09;;;-140.58;95.18
17309;BME280;8772;42.804;23.426;2023-06-14T07:12:55;72505.19;;;-140.58;93.07
17309;BME280;8772;42.804;23.426;2023-06-14T07:15:22;72499.03;;;-140.58;91.25
17309;BME280;8772;42.804;23.426;2023-06-14T07:17:49;72507.25;;;-140.58;91.75
17309;BME280;8772;42.804;23.426;2023-06-14T07:20:16;72499.03;;;-140.58;94.64
17309;BME280;8772;42.804;23.426;2023-06-14T07:22:45;72501.09;;;-140.58;93.57
17309;BME280;8772;42.804;23.426;2023-06-14T07:25:12;72496.97;;;-140.58;88.52
17309;BME280;8772;42.804;23.426;2023-06-14T07:27:40;72492.88;;;-140.58;90.14
17309;BME280;8772;42.804;23.426;2023-06-14T07:30:08;72509.28;;;-140.58;89.40
17309;BME280;8772;42.804;23.426;2023-06-14T07:32:35;72492.88;;;-140.58;90.17
17309;BME280;8772;42.804;23.426;2023-06-14T07:35:02;72492.88;;;-140.58;90.90
17309;BME280;8772;42.804;23.426;2023-06-14T07:37:29;72496.97;;;-140.58;91.34
17309;BME280;8772;42.804;23.426;2023-06-14T07:39:57;72488.78;;;-140.58;94.16
17309;BME280;8772;42.804;23.426;2023-06-14T07:42:24;72496.97;;;-140.58;92.63
17309;BME280;8772;42.804;23.426;2023-06-14T07:44:51;72492.88;;;-140.58;93.58
17309;BME280;8772;42.804;23.426;2023-06-14T07:47:19;72499.03;;;-140.58;94.15
17309;BME280;8772;42.804;23.426;2023-06-14T07:49:46;72472.38;;;-140.58;97.68
17309;BME280;8772;42.804;23.426;2023-06-14T07:52:12;72472.38;;;-140.58;95.57
17309;BME280;8772;42.804;23.426;2023-06-14T07:54:39;72455.97;;;-140.58;99.79
17309;BME280;8772;42.804;23.426;2023-06-14T07:57:07;72419.06;;;-140.58;100.00
17309;BME280;8772;42.804;23.426;2023-06-14T07:59:34;72394.44;;;-140.58;96.61
17309;BME280;8772;42.804;23.426;2023-06-14T08:02:01;72373.94;;;-140.58;85.84
17309;BME280;8772;42.804;23.426;2023-06-14T08:04:28;72376.00;;;-140.58;79.20
17309;BME280;8772;42.804;23.426;2023-06-14T08:06:55;72332.94;;;-140.58;84.44
17309;BME280;8772;42.804;23.426;2023-06-14T08:09:22;72310.38;;;-140.58;76.22
17309;BME280;8772;42.804;23.426;2023-06-14T08:11:50;72312.44;;;-140.58;78.52
17309;BME280;8772;42.804;23.426;2023-06-14T08:14:18;72287.81;;;-140.58;82.25
17309;BME280;8772;42.804;23.426;2023-06-14T08:16:45;72271.41;;;-140.58;82.78
17309;BME280;8772;42.804;23.426;2023-06-14T08:19:12;72246.81;;;-140.58;78.42
17309;BME280;8772;42.804;23.426;2023-06-14T08:21:39;72234.50;;;-140.58;74.03
17309;BME280;8772;42.804;23.426;2023-06-14T08:24:06;72205.81;;;-140.58;81.10
17309;BME280;8772;42.804;23.426;2023-06-14T08:26:32;72179.16;;;-140.58;79.69
17309;BME280;8772;42.804;23.426;2023-06-14T08:28:59;72160.69;;;-140.58;75.67
17309;BME280;8772;42.804;23.426;2023-06-14T08:31:27;72197.59;;;-140.58;70.94
17309;BME280;8772;42.804;23.426;2023-06-14T08:33:54;72173.00;;;-140.58;66.86
17309;BME280;8772;42.804;23.426;2023-06-14T08:36:21;72168.91;;;-140.58;67.28
17309;BME280;8772;42.804;23.426;2023-06-14T08:38:48;72146.34;;;-140.58;67.54
17309;BME280;8772;42.804;23.426;2023-06-14T08:41:20;72125.84;;;-140.58;65.05
17309;BME280;8772;42.804;23.426;2023-06-14T08:43:48;72107.38;;;-140.58;61.14
17309;BME280;8772;42.804;23.426;2023-06-14T08:46:17;72080.72;;;-140.58;61.48
17309;BME280;8772;42.804;23.426;2023-06-14T08:48:48;72045.88;;;-140.58;67.03
17309;BME280;8772;42.804;23.426;2023-06-14T08:51:18;72037.66;;;-140.58;55.32
17309;BME280;8772;42.804;23.426;2023-06-14T08:53:51;72045.88;;;-140.58;52.38
17309;BME280;8772;42.804;23.426;2023-06-14T08:56:19;72025.38;;;-140.58;54.05
17309;BME280;8772;42.804;23.426;2023-06-14T08:58:48;72019.22;;;-140.58;58.96
17309;BME280;8772;42.804;23.426;2023-06-14T09:01:16;72000.75;;;-140.58;53.85
17309;BME280;8772;42.804;23.426;2023-06-14T09:03:43;71996.66;;;-140.58;53.89
17309;BME280;8772;42.804;23.426;2023-06-14T09:06:11;71988.47;;;-140.58;57.89
17309;BME280;8772;42.804;23.426;2023-06-14T09:08:41;71970.00;;;-140.58;53.14
17309;BME280;8772;42.804;23.426;2023-06-14T09:11:10;71959.75;;;-140.58;54.71
17309;BME280;8772;42.804;23.426;2023-06-14T09:13:38;71922.84;;;-140.58;56.16
17309;BME280;8772;42.804;23.426;2023-06-14T09:16:06;71881.84;;;-140.58;56.92
17309;BME280;8772;42.804;23.426;2023-06-14T09:18:36;71832.63;;;-140.58;56.22
17309;BME280;8772;42.804;23.426;2023-06-14T09:21:05;71795.72;;;-140.58;54.50
17309;BME280;8772;42.804;23.426;2023-06-14T09:23:36;71752.69;;;-140.58;49.62
17309;BME280;8772;42.804;23.426;2023-06-14T09:26:07;71730.13;;;-140.58;49.05
17309;BME280;8772;42.804;23.426;2023-06-14T09:28:34;71691.16;;;-140.58;52.04
17309;BME280;8772;42.804;23.426;2023-06-14T09:31:01;71674.78;;;-140.58;48.12
17309;BME280;8772;42.804;23.426;2023-06-14T09:33:28;71631.72;;;-140.58;49.85
17309;BME280;8772;42.804;23.426;2023-06-14T09:35:55;71594.81;;;-140.58;46.03
17309;BME280;8772;42.804;23.426;2023-06-14T09:38:22;71545.63;;;-140.58;48.58
17309;BME280;8772;42.804;23.426;2023-06-14T09:40:51;71514.84;;;-140.58;50.79
17309;BME280;8772;42.804;23.426;2023-06-14T09:43:18;71473.84;;;-140.58;49.39
17309;BME280;8772;42.804;23.426;2023-06-14T09:45:47;71426.72;;;-140.58;42.94
17309;BME280;8772;42.804;23.426;2023-06-14T09:48:14;71385.72;;;-140.58;45.02
17309;BME280;8772;42.804;23.426;2023-06-14T09:50:45;71363.16;;;-140.58;44.07
17309;BME280;8772;42.804;23.426;2023-06-14T09:53:13;71357.00;;;-140.58;42.50
17309;BME280;8772;42.804;23.426;2023-06-14T09:55:41;71369.31;;;-140.58;40.32
17309;BME280;8772;42.804;23.426;2023-06-14T09:58:10;71404.16;;;-140.58;39.93
17309;BME280;8772;42.804;23.426;2023-06-14T10:00:39;71422.59;;;-140.58;41.77
17309;BME280;8772;42.804;23.426;2023-06-14T10:03:13;71400.06;;;-140.58;44.69
17309;BME280;8772;42.804;23.426;2023-06-14T10:05:43;71383.66;;;-140.58;45.58
17309;BME280;8772;42.804;23.426;2023-06-14T10:08:14;71342.66;;;-140.58;45.04
17309;BME280;8772;42.804;23.426;2023-06-14T10:10:42;71344.72;;;-140.58;40.48
17309;BME280;8772;42.804;23.426;2023-06-14T10:13:11;71287.31;;;-140.58;42.34
17309;BME280;8772;42.804;23.426;2023-06-14T10:15:45;71264.75;;;-140.58;42.00
17309;BME280;8772;42.804;23.426;2023-06-14T10:18:21;71275.00;;;-140.58;41.80
17309;BME280;8772;42.804;23.426;2023-06-14T10:20:56;71303.72;;;-140.58;39.55
17309;BME280;8772;42.804;23.426;2023-06-14T10:23:26;71254.50;;;-140.58;42.57
17309;BME280;8772;42.804;23.426;2023-06-14T10:25:56;71291.41;;;-140.58;39.17
17309;BME280;8772;42.804;23.426;2023-06-14T10:28:24;71402.09;;;-140.58;37.75
17309;BME280;8772;42.804;23.426;2023-06-14T10:31:08;71488.22;;;-140.58;39.77
17309;BME280;8772;42.804;23.426;2023-06-14T10:33:36;71406.22;;;-140.58;45.23
17309;BME280;8772;42.804;23.426;2023-06-14T10:36:26;71328.31;;;-140.58;42.73
17309;BME280;8772;42.804;23.426;2023-06-14T10:39:00;71264.75;;;-140.58;42.67
17309;BME280;8772;42.804;23.426;2023-06-14T10:41:29;71225.81;;;-140.58;42.59
17309;BME280;8772;42.804;23.426;2023-06-14T10:44:40;71209.41;;;-140.58;39.02
17309;BME280;8772;42.804;23.426;2023-06-14T10:47:08;71188.91;;;-140.58;41.19
17309;BME280;8772;42.804;23.426;2023-06-14T10:49:45;71160.22;;;-140.58;40.54
17309;BME280;8772;42.804;23.426;2023-06-14T10:52:13;71143.81;;;-140.58;38.08
17309;BME280;8772;42.804;23.426;2023-06-14T10:55:02;71172.50;;;-140.58;39.35
17309;BME280;8772;42.804;23.426;2023-06-14T10:57:31;71123.31;;;-140.58;41.18
17309;BME280;8772;42.804;23.426;2023-06-14T11:00:00;71143.81;;;-140.58;37.83
17309;BME280;8772;42.804;23.426;2023-06-14T11:02:51;71160.22;;;-140.58;36.85
17309;BME280;8772;42.804;23.426;2023-06-14T11:05:24;71168.41;;;-140.58;34.48
17309;BME280;8772;42.804;23.426;2023-06-14T11:08:03;71102.81;;;-140.58;37.42
17309;BME280;8772;42.804;23.426;2023-06-14T11:10:36;71102.81;;;-140.58;37.58
17309;BME280;8772;42.804;23.426;2023-06-14T11:13:03;71113.06;;;-140.58;37.25
17309;BME280;8772;42.804;23.426;2023-06-14T11:15:33;71143.81;;;-140.58;36.99
17309;BME280;8772;42.804;23.426;2023-06-14T11:18:00;71184.81;;;-140.58;36.36
17309;BME280;8772;42.804;23.426;2023-06-14T11:20:30;71168.41;;;-140.58;38.67
17309;BME280;8772;42.804;23.426;2023-06-14T11:22:57;71143.81;;;-140.58;40.87
17309;BME280;8772;42.804;23.426;2023-06-14T11:25:24;71119.22;;;-140.58;41.33
17309;BME280;8772;42.804;23.426;2023-06-14T11:27:52;71098.72;;;-140.58;40.63
17309;BME280;8772;42.804;23.426;2023-06-14T11:30:19;71067.97;;;-140.58;40.11
17309;BME280;8772;42.804;23.426;2023-06-14T11:32:48;71041.31;;;-140.58;39.48
17309;BME280;8772;42.804;23.426;2023-06-14T11:35:16;71012.63;;;-140.58;37.77
17309;BME280;8772;42.804;23.426;2023-06-14T11:37:43;70983.94;;;-140.58;37.65
17309;BME280;8772;42.804;23.426;2023-06-14T11:40:12;70942.94;;;-140.58;35.96
17309;BME280;8772;42.804;23.426;2023-06-14T11:42:40;70918.34;;;-140.58;38.56
17309;BME280;8772;42.804;23.426;2023-06-14T11:45:08;70957.28;;;-140.58;34.78
17309;BME280;8772;42.804;23.426;2023-06-14T11:47:37;70901.94;;;-140.58;35.95
17309;BME280;8772;42.804;23.426;2023-06-14T11:50:07;70893.75;;;-140.58;37.63
17309;BME280;8772;42.804;23.426;2023-06-14T11:52:36;70930.63;;;-140.58;36.36
17309;BME280;8772;42.804;23.426;2023-06-14T11:55:03;70897.84;;;-140.58;37.79
17309;BME280;8772;42.804;23.426;2023-06-14T11:57:34;70840.44;;;-140.58;36.94
17309;BME280;8772;42.804;23.426;2023-06-14T12:00:03;70791.25;;;-140.58;37.26
17309;BME280;8772;42.804;23.426;2023-06-14T12:02:33;70791.25;;;-140.58;35.27
17309;BME280;8772;42.804;23.426;2023-06-14T12:05:06;70758.47;;;-140.58;36.03
17309;BME280;8772;42.804;23.426;2023-06-14T12:07:36;70725.66;;;-140.58;35.89
17309;BME280;8772;42.804;23.426;2023-06-14T12:10:07;70723.63;;;-140.58;35.03
17309;BME280;8772;42.804;23.426;2023-06-14T12:12:37;70733.88;;;-140.58;33.44
17309;BME280;8772;42.804;23.426;2023-06-14T12:15:06;70817.91;;;-140.58;33.83
17309;BME280;8772;42.804;23.426;2023-06-14T12:17:34;70998.28;;;-140.58;33.15
17309;BME280;8772;42.804;23.426;2023-06-14T12:20:09;71012.63;;;-140.58;35.83
17309;BME280;8772;42.804;23.426;2023-06-14T12:22:39;70947.03;;;-140.58;36.82
17309;BME280;8772;42.804;23.426;2023-06-14T12:25:23;71024.94;;;-140.58;34.27
17309;BME280;8772;42.804;23.426;2023-06-14T12:27:53;71133.56;;;-140.58;37.21
17309;BME280;8772;42.804;23.426;2023-06-14T12:30:20;71188.91;;;-140.58;40.07
17309;BME280;8772;42.804;23.426;2023-06-14T12:32:47;71207.38;;;-140.58;38.81
17309;BME280;8772;42.804;23.426;2023-06-14T12:35:15;71229.91;;;-140.58;38.12
17309;BME280;8772;42.804;23.426;2023-06-14T12:37:42;71238.13;;;-140.58;39.92
17309;BME280;8772;42.804;23.426;2023-06-14T12:40:09;71338.56;;;-140.58;42.19
17309;BME280;8772;42.804;23.426;2023-06-14T12:42:37;71463.59;;;-140.58;44.79
17309;BME280;8772;42.804;23.426;2023-06-14T12:45:04;71488.22;;;-140.58;44.96